createdAt,value
2018-06-23T00:00:14.990Z,19.70
2018-06-23T00:01:14.956Z,19.80
2018-06-23T00:02:14.917Z,25.50
2018-06-23T00:03:14.877Z,17.60
2018-06-23T00:04:14.846Z,23.10
2018-06-23T00:05:14.798Z,26.80
2018-06-23T00:06:14.762Z,13.70
2018-06-23T00:07:14.740Z,18.00
2018-06-23T00:08:14.704Z,16.90
2018-06-23T00:09:14.648Z,17.60
2018-06-23T00:10:14.622Z,18.90
2018-06-23T00:11:14.578Z,20.80
2018-06-23T00:12:14.532Z,20.50
2018-06-23T00:13:14.504Z,23.40
2018-06-23T00:14:14.467Z,21.20
2018-06-23T00:15:14.494Z,21.20
2018-06-23T00:16:14.390Z,20.20
2018-06-23T00:17:14.348Z,16.00
2018-06-23T00:18:14.310Z,21.60
2018-06-23T00:19:14.278Z,18.60
2018-06-23T00:20:14.237Z,18.90
2018-06-23T00:21:14.203Z,19.20
2018-06-23T00:22:14.166Z,22.60
2018-06-23T00:23:14.126Z,22.30
2018-06-23T00:24:14.089Z,19.70
2018-06-23T00:25:14.053Z,15.60
2018-06-23T00:26:14.015Z,21.50
2018-06-23T00:27:13.980Z,23.60
2018-06-23T00:28:13.940Z,18.90
2018-06-23T00:29:13.899Z,20.60
2018-06-23T00:30:13.865Z,18.60
2018-06-23T00:31:13.826Z,17.30
2018-06-23T00:32:13.786Z,18.70
2018-06-23T00:33:13.756Z,23.40
2018-06-23T00:34:13.715Z,20.80
2018-06-23T00:35:13.679Z,28.20
2018-06-23T00:36:13.641Z,24.40
2018-06-23T00:37:13.600Z,22.80
2018-06-23T00:38:13.564Z,19.90
2018-06-23T00:39:13.529Z,23.80
2018-06-23T00:40:13.494Z,23.10
2018-06-23T00:41:13.451Z,28.60
2018-06-23T00:42:13.418Z,18.90
2018-06-23T00:43:13.381Z,23.00
2018-06-23T00:44:13.337Z,29.20
2018-06-23T00:45:13.308Z,20.40
2018-06-23T00:46:13.265Z,23.30
2018-06-23T00:47:13.245Z,25.40
2018-06-23T00:48:13.202Z,20.90
2018-06-23T00:49:13.149Z,22.20
2018-06-23T00:50:13.118Z,20.90
2018-06-23T00:51:13.083Z,18.80
2018-06-23T00:52:13.043Z,24.90
2018-06-23T00:53:13.013Z,21.20
2018-06-23T00:54:12.975Z,22.80
2018-06-23T00:55:12.930Z,27.90
2018-06-23T00:56:12.889Z,28.90
2018-06-23T00:57:12.858Z,23.20
2018-06-23T00:58:12.820Z,23.50
2018-06-23T00:59:12.779Z,26.30
2018-06-23T01:00:12.747Z,23.30
2018-06-23T01:01:12.700Z,21.40
2018-06-23T01:02:12.674Z,23.00
2018-06-23T01:03:12.632Z,24.80
2018-06-23T01:04:12.590Z,25.40
2018-06-23T01:05:12.561Z,21.40
2018-06-23T01:06:12.527Z,27.10
2018-06-23T01:07:12.483Z,21.90
2018-06-23T01:08:12.446Z,23.60
2018-06-23T01:09:12.400Z,28.50
2018-06-23T01:10:12.380Z,25.10
2018-06-23T01:11:12.331Z,22.50
2018-06-23T01:12:12.295Z,24.10
2018-06-23T01:13:12.251Z,24.40
2018-06-23T01:14:12.215Z,27.10
2018-06-23T01:15:12.175Z,28.00
2018-06-23T01:16:12.133Z,21.20
2018-06-23T01:17:12.105Z,29.20
2018-06-23T01:18:12.064Z,25.50
2018-06-23T01:19:12.029Z,23.90
2018-06-23T01:20:11.992Z,24.90
2018-06-23T01:21:11.955Z,27.50
2018-06-23T01:22:11.924Z,29.50
2018-06-23T01:23:11.883Z,23.20
2018-06-23T01:24:11.838Z,20.40
2018-06-23T01:25:11.804Z,19.90
2018-06-23T01:26:11.767Z,31.00
2018-06-23T01:27:11.727Z,29.90
2018-06-23T01:28:11.686Z,25.90
2018-06-23T01:29:11.658Z,23.20
2018-06-23T01:30:11.617Z,19.30
2018-06-23T01:31:11.580Z,22.70
2018-06-23T01:32:11.551Z,29.00
2018-06-23T01:33:11.501Z,23.20
2018-06-23T01:34:11.469Z,27.60
2018-06-23T01:35:11.422Z,22.60
2018-06-23T01:36:11.391Z,28.20
2018-06-23T01:37:11.362Z,28.60
2018-06-23T01:38:11.321Z,29.00
2018-06-23T01:39:11.274Z,26.30
2018-06-23T01:40:11.237Z,28.00
2018-06-23T01:41:11.197Z,28.10
2018-06-23T01:42:11.163Z,28.40
2018-06-23T01:43:11.132Z,25.90
2018-06-23T01:44:11.087Z,32.30
2018-06-23T01:45:11.043Z,24.50
2018-06-23T01:46:11.010Z,29.40
2018-06-23T01:47:10.969Z,26.90
2018-06-23T01:48:10.941Z,25.80
2018-06-23T01:49:10.903Z,24.70
2018-06-23T01:50:10.857Z,27.70
2018-06-23T01:51:10.824Z,31.70
2018-06-23T01:52:10.789Z,25.50
2018-06-23T01:53:10.743Z,36.20
2018-06-23T01:54:10.704Z,30.40
2018-06-23T01:55:10.668Z,27.40
2018-06-23T01:56:10.628Z,25.50
2018-06-23T01:57:10.598Z,28.30
2018-06-23T01:58:10.561Z,28.30
2018-06-23T01:59:10.528Z,27.80
2018-06-23T02:00:10.475Z,31.90
2018-06-23T02:01:10.443Z,29.80
2018-06-23T02:02:10.408Z,25.40
2018-06-23T02:03:10.367Z,36.80
2018-06-23T02:04:10.336Z,27.00
2018-06-23T02:05:10.287Z,33.90
2018-06-23T02:06:10.251Z,28.50
2018-06-23T02:07:10.216Z,30.60
2018-06-23T02:08:10.172Z,35.40
2018-06-23T02:09:10.150Z,29.70
2018-06-23T02:10:10.099Z,27.60
2018-06-23T02:11:10.063Z,30.50
2018-06-23T02:12:10.046Z,34.00
2018-06-23T02:13:09.982Z,25.60
2018-06-23T02:14:09.945Z,26.60
2018-06-23T02:15:09.917Z,26.80
2018-06-23T02:16:09.877Z,30.20
2018-06-23T02:17:09.829Z,28.00
2018-06-23T02:18:09.794Z,24.20
2018-06-23T02:19:09.763Z,26.10
2018-06-23T02:20:09.714Z,24.60
2018-06-23T02:21:09.687Z,30.80
2018-06-23T02:22:09.646Z,29.50
2018-06-23T02:23:09.607Z,26.70
2018-06-23T02:24:09.571Z,25.00
2018-06-23T02:25:09.525Z,26.90
2018-06-23T02:26:09.492Z,36.50
2018-06-23T02:27:09.451Z,27.80
2018-06-23T02:28:09.413Z,22.60
2018-06-23T02:29:09.388Z,20.60
2018-06-23T02:30:09.339Z,29.00
2018-06-23T02:31:09.299Z,23.00
2018-06-23T02:32:09.260Z,26.00
2018-06-23T02:33:09.266Z,32.30
2018-06-23T02:34:09.188Z,27.80
2018-06-23T02:35:09.152Z,33.40
2018-06-23T02:36:09.118Z,29.90
2018-06-23T02:37:09.072Z,22.60
2018-06-23T02:38:09.037Z,27.60
2018-06-23T02:39:08.995Z,28.00
2018-06-23T02:40:08.955Z,34.90
2018-06-23T02:41:10.589Z,33.70
2018-06-23T02:42:08.888Z,27.10
2018-06-23T02:43:08.848Z,28.10
2018-06-23T02:44:08.808Z,25.60
2018-06-23T02:45:08.787Z,29.00
2018-06-23T02:46:08.729Z,33.40
2018-06-23T02:47:08.702Z,30.70
2018-06-23T02:48:08.662Z,29.80
2018-06-23T02:49:08.613Z,25.00
2018-06-23T02:50:08.576Z,26.70
2018-06-23T02:51:08.540Z,25.80
2018-06-23T02:52:08.504Z,24.40
2018-06-23T02:53:08.467Z,27.00
2018-06-23T02:54:08.433Z,35.10
2018-06-23T02:55:08.401Z,29.20
2018-06-23T02:56:08.362Z,27.50
2018-06-23T02:57:08.308Z,28.00
2018-06-23T02:58:08.271Z,26.50
2018-06-23T02:59:08.235Z,33.00
2018-06-23T03:00:08.194Z,26.10
2018-06-23T03:01:08.164Z,23.80
2018-06-23T03:02:08.169Z,29.50
2018-06-23T03:03:08.086Z,29.20
2018-06-23T03:04:08.044Z,24.80
2018-06-23T03:05:08.058Z,27.10
2018-06-23T03:06:08.018Z,24.60
2018-06-23T03:07:07.930Z,33.30
2018-06-23T03:08:07.892Z,32.40
2018-06-23T03:09:07.855Z,25.00
2018-06-23T03:10:07.817Z,35.10
2018-06-23T03:11:07.780Z,24.10
2018-06-23T03:12:07.737Z,27.40
2018-06-23T03:13:07.723Z,24.90
2018-06-23T03:14:07.667Z,24.80
2018-06-23T03:15:07.625Z,23.80
2018-06-23T03:16:07.599Z,27.00
2018-06-23T03:17:07.546Z,29.20
2018-06-23T03:18:07.511Z,28.60
2018-06-23T03:19:07.480Z,27.50
2018-06-23T03:20:07.439Z,29.50
2018-06-23T03:21:07.404Z,25.90
2018-06-23T03:22:07.370Z,29.70
2018-06-23T03:23:07.323Z,27.20
2018-06-23T03:24:07.286Z,20.70
2018-06-23T03:25:07.251Z,27.40
2018-06-23T03:26:07.212Z,31.20
2018-06-23T03:27:07.172Z,28.20
2018-06-23T03:28:07.143Z,29.50
2018-06-23T03:29:07.098Z,29.30
2018-06-23T03:30:07.055Z,23.20
2018-06-23T03:31:07.018Z,29.80
2018-06-23T03:32:06.975Z,28.00
2018-06-23T03:33:06.942Z,30.00
2018-06-23T03:34:06.904Z,21.30
2018-06-23T03:35:06.864Z,29.60
2018-06-23T03:36:06.825Z,30.60
2018-06-23T03:37:06.792Z,25.10
2018-06-23T03:38:06.753Z,29.10
2018-06-23T03:39:06.715Z,24.20
2018-06-23T03:40:06.685Z,28.30
2018-06-23T03:41:06.638Z,27.70
2018-06-23T03:42:06.597Z,24.40
2018-06-23T03:43:06.558Z,24.00
2018-06-23T03:44:06.522Z,24.30
2018-06-23T03:45:06.494Z,27.50
2018-06-23T03:46:06.450Z,22.40
2018-06-23T03:47:06.415Z,30.60
2018-06-23T03:48:06.398Z,29.20
2018-06-23T03:49:06.335Z,25.50
2018-06-23T03:50:06.305Z,22.80
2018-06-23T03:51:06.270Z,29.90
2018-06-23T04:06:28.163Z,24.00
2018-06-23T04:07:28.073Z,33.60
2018-06-23T04:08:28.027Z,25.10
2018-06-23T04:09:27.983Z,30.10
2018-06-23T04:10:27.947Z,25.30
2018-06-23T04:11:27.960Z,31.50
2018-06-23T04:12:27.859Z,22.50
2018-06-23T04:13:27.824Z,26.90
2018-06-23T04:14:27.788Z,28.10
2018-06-23T04:15:27.747Z,22.40
2018-06-23T04:16:27.707Z,29.10
2018-06-23T04:17:27.677Z,23.50
2018-06-23T04:18:27.637Z,28.00
2018-06-23T04:19:27.592Z,21.80
2018-06-23T04:20:27.552Z,24.90
2018-06-23T04:21:27.504Z,26.80
2018-06-23T04:22:27.474Z,23.50
2018-06-23T04:23:27.434Z,21.30
2018-06-23T04:24:27.396Z,25.90
2018-06-23T04:25:27.362Z,25.10
2018-06-23T04:26:27.324Z,29.90
2018-06-23T04:27:27.280Z,21.70
2018-06-23T04:28:27.240Z,25.90
2018-06-23T04:29:27.212Z,27.90
2018-06-23T04:30:27.168Z,24.90
2018-06-23T04:31:27.136Z,19.70
2018-06-23T04:32:27.088Z,29.30
2018-06-23T04:33:27.050Z,25.20
2018-06-23T04:34:27.013Z,25.40
2018-06-23T04:35:26.973Z,22.60
2018-06-23T04:36:26.937Z,34.10
2018-06-23T04:37:26.902Z,20.10
2018-06-23T04:38:26.863Z,34.20
2018-06-23T04:39:26.819Z,27.80
2018-06-23T04:40:26.786Z,23.10
2018-06-23T04:41:26.744Z,23.80
2018-06-23T04:42:26.713Z,22.70
2018-06-23T04:43:26.670Z,26.90
2018-06-23T04:44:26.638Z,21.60
2018-06-23T04:45:26.594Z,29.00
2018-06-23T04:46:26.554Z,31.50
2018-06-23T04:47:26.527Z,20.40
2018-06-23T04:48:26.488Z,20.90
2018-06-23T04:49:26.444Z,22.30
2018-06-23T04:50:26.409Z,20.40
2018-06-23T04:51:26.397Z,22.00
2018-06-23T04:52:26.341Z,23.20
2018-06-23T04:53:26.345Z,23.80
2018-06-23T04:54:26.251Z,23.00
2018-06-23T04:55:26.215Z,27.80
2018-06-23T04:56:26.182Z,19.90
2018-06-23T04:57:26.145Z,23.00
2018-06-23T04:58:26.175Z,27.10
2018-06-23T04:59:26.071Z,23.50
2018-06-23T05:00:26.042Z,20.50
2018-06-23T05:01:25.999Z,22.70
2018-06-23T05:02:25.974Z,20.40
2018-06-23T05:03:25.918Z,25.80
2018-06-23T05:04:25.879Z,29.00
2018-06-23T05:05:25.843Z,20.80
2018-06-23T05:06:25.801Z,23.30
2018-06-23T05:07:25.765Z,22.50
2018-06-23T05:08:25.733Z,20.00
2018-06-23T05:09:25.705Z,21.50
2018-06-23T05:10:25.658Z,22.10
2018-06-23T05:11:25.618Z,23.40
2018-06-23T05:12:25.587Z,19.80
2018-06-23T05:13:25.544Z,26.50
2018-06-23T05:14:25.508Z,16.90
2018-06-23T05:15:25.474Z,18.40
2018-06-23T05:16:25.428Z,22.20
2018-06-23T05:17:25.388Z,20.20
2018-06-23T05:18:25.353Z,24.00
2018-06-23T05:19:25.318Z,20.40
2018-06-23T05:20:25.282Z,21.00
2018-06-23T05:21:25.246Z,22.20
2018-06-23T05:22:25.211Z,15.60
2018-06-23T05:23:25.177Z,18.70
2018-06-23T05:24:25.129Z,19.50
2018-06-23T05:25:25.092Z,25.60
2018-06-23T05:26:25.052Z,19.20
2018-06-23T05:27:25.021Z,20.80
2018-06-23T05:28:24.982Z,17.20
2018-06-23T05:29:24.947Z,16.40
2018-06-23T05:30:24.912Z,18.60
2018-06-23T05:31:24.872Z,20.30
2018-06-23T05:32:24.834Z,21.90
2018-06-23T05:33:24.803Z,19.20
2018-06-23T05:34:24.760Z,23.20
2018-06-23T05:35:24.727Z,20.10
2018-06-23T05:36:24.681Z,14.70
2018-06-23T05:37:24.642Z,23.60
2018-06-23T05:38:24.607Z,23.70
2018-06-23T05:39:24.581Z,17.40
2018-06-23T05:40:24.540Z,18.20
2018-06-23T05:41:24.504Z,21.40
2018-06-23T05:42:24.471Z,20.10
2018-06-23T05:43:24.449Z,18.60
2018-06-23T05:44:24.389Z,20.40
2018-06-23T05:45:24.345Z,18.00
2018-06-23T05:46:24.318Z,18.20
2018-06-23T05:47:24.273Z,16.20
2018-06-23T05:48:24.236Z,19.50
2018-06-23T05:49:24.194Z,20.80
2018-06-23T05:50:24.176Z,16.60
2018-06-23T05:51:24.167Z,17.90
2018-06-23T05:52:24.091Z,17.60
2018-06-23T05:53:24.057Z,19.00
2018-06-23T05:54:24.018Z,20.90
2018-06-23T05:55:23.979Z,20.40
2018-06-23T05:56:23.938Z,19.10
2018-06-23T05:57:23.902Z,21.70
2018-06-23T05:58:23.862Z,18.30
2018-06-23T05:59:23.827Z,21.60
2018-06-23T06:00:23.794Z,19.40
2018-06-23T06:01:23.763Z,18.90
2018-06-23T06:02:23.718Z,25.30
2018-06-23T06:03:23.680Z,19.50
2018-06-23T06:04:23.642Z,17.10
2018-06-23T06:05:23.607Z,22.50
2018-06-23T06:06:23.582Z,16.10
2018-06-23T06:07:23.532Z,18.50
2018-06-23T06:08:23.496Z,20.10
2018-06-23T06:09:23.457Z,18.60
2018-06-23T06:10:23.421Z,21.00
2018-06-23T06:11:23.383Z,22.10
2018-06-23T06:12:23.348Z,19.90
2018-06-23T06:13:23.336Z,19.70
2018-06-23T06:14:23.283Z,17.20
2018-06-23T06:15:23.240Z,17.40
2018-06-23T06:16:23.203Z,19.70
2018-06-23T06:17:23.171Z,19.20
2018-06-23T06:18:23.131Z,19.00
2018-06-23T06:19:23.094Z,18.40
2018-06-23T06:20:23.061Z,23.80
2018-06-23T06:21:23.016Z,18.40
2018-06-23T06:22:22.983Z,19.60
2018-06-23T06:23:22.946Z,25.00
2018-06-23T06:24:22.907Z,17.30
2018-06-23T06:25:22.878Z,17.20
2018-06-23T06:26:22.837Z,18.20
2018-06-23T06:27:22.799Z,16.60
2018-06-23T06:28:22.758Z,12.70
2018-06-23T06:29:22.785Z,20.30
2018-06-23T06:30:22.691Z,13.90
2018-06-23T06:31:22.654Z,20.90
2018-06-23T06:32:22.614Z,16.20
2018-06-23T06:33:22.591Z,11.10
2018-06-23T06:34:22.540Z,15.30
2018-06-23T06:35:22.507Z,12.50
2018-06-23T06:36:22.474Z,12.30
2018-06-23T06:37:22.435Z,15.20
2018-06-23T06:38:22.413Z,14.90
2018-06-23T06:39:22.359Z,13.30
2018-06-23T06:40:22.330Z,14.20
2018-06-23T06:41:22.284Z,17.90
2018-06-23T06:42:22.249Z,13.50
2018-06-23T06:43:22.223Z,16.70
2018-06-23T06:44:22.180Z,14.70
2018-06-23T06:45:22.150Z,14.80
2018-06-23T06:46:22.109Z,16.70
2018-06-23T06:47:22.072Z,18.50
2018-06-23T06:48:22.032Z,12.40
2018-06-23T06:49:21.997Z,12.10
2018-06-23T06:50:21.968Z,12.30
2018-06-23T06:51:21.927Z,12.00
2018-06-23T06:52:21.888Z,23.00
2018-06-23T06:53:21.863Z,15.10
2018-06-23T06:54:21.822Z,17.80
2018-06-23T06:55:21.780Z,18.70
2018-06-23T06:56:21.750Z,11.50
2018-06-23T06:57:21.735Z,12.90
2018-06-23T06:58:21.688Z,18.20
2018-06-23T06:59:21.638Z,12.70
2018-06-23T07:00:21.604Z,14.30
2018-06-23T07:01:21.574Z,9.50
2018-06-23T07:02:21.536Z,18.40
2018-06-23T07:03:21.525Z,14.40
2018-06-23T07:04:21.461Z,15.50
2018-06-23T07:05:21.426Z,15.10
2018-06-23T07:06:21.383Z,14.20
2018-06-23T07:07:21.355Z,15.60
2018-06-23T07:08:21.324Z,12.00
2018-06-23T07:09:21.297Z,13.20
2018-06-23T07:10:21.260Z,14.60
2018-06-23T07:11:22.749Z,14.00
2018-06-23T07:12:21.304Z,12.80
2018-06-23T07:13:21.133Z,13.20
2018-06-23T07:14:21.104Z,14.00
2018-06-23T07:15:21.062Z,14.80
2018-06-23T07:16:21.031Z,11.50
2018-06-23T07:17:20.999Z,13.80
2018-06-23T07:18:20.965Z,10.60
2018-06-23T07:19:20.922Z,11.90
2018-06-23T07:20:20.891Z,12.50
2018-06-23T07:21:20.867Z,14.40
2018-06-23T07:22:20.819Z,12.80
2018-06-23T07:23:20.827Z,10.90
2018-06-23T07:24:20.745Z,13.30
2018-06-23T07:25:20.702Z,14.00
2018-06-23T07:26:20.673Z,11.20
2018-06-23T07:27:20.635Z,12.60
2018-06-23T07:28:20.609Z,16.10
2018-06-23T07:29:20.571Z,12.30
2018-06-23T07:30:20.536Z,9.60
2018-06-23T07:31:20.496Z,10.60
2018-06-23T07:32:20.456Z,13.20
2018-06-23T07:33:20.435Z,14.00
2018-06-23T07:34:20.457Z,12.70
2018-06-23T07:35:20.461Z,12.00
2018-06-23T07:36:20.316Z,12.40
2018-06-23T07:37:20.283Z,9.40
2018-06-23T07:38:20.269Z,12.20
2018-06-23T07:39:20.207Z,10.60
2018-06-23T07:40:20.179Z,11.10
2018-06-23T07:41:20.167Z,15.10
2018-06-23T07:42:20.117Z,16.00
2018-06-23T07:43:20.067Z,9.30
2018-06-23T07:44:20.031Z,14.20
2018-06-23T07:45:19.997Z,14.80
2018-06-23T07:46:19.960Z,15.00
2018-06-23T07:47:19.932Z,14.00
2018-06-23T07:48:19.890Z,12.00
2018-06-23T07:49:19.860Z,15.60
2018-06-23T07:50:19.824Z,16.90
2018-06-23T07:51:19.782Z,16.40
2018-06-23T07:52:19.743Z,13.50
2018-06-23T07:53:19.706Z,11.40
2018-06-23T07:54:19.679Z,13.80
2018-06-23T07:55:19.643Z,13.50
2018-06-23T07:56:19.672Z,13.30
2018-06-23T07:57:19.570Z,15.50
2018-06-23T07:58:19.531Z,13.30
2018-06-23T07:59:19.505Z,15.80
2018-06-23T08:00:19.474Z,12.00
2018-06-23T08:01:19.427Z,11.60
2018-06-23T08:02:19.393Z,13.70
2018-06-23T08:03:19.358Z,14.60
2018-06-23T08:04:19.318Z,12.90
2018-06-23T08:05:19.292Z,15.40
2018-06-23T08:06:19.246Z,14.70
2018-06-23T08:07:19.214Z,14.30
2018-06-23T08:08:19.177Z,12.90
2018-06-23T08:09:19.142Z,10.90
2018-06-23T08:10:19.102Z,14.80
2018-06-23T08:11:19.075Z,15.30
2018-06-23T08:12:19.047Z,14.80
2018-06-23T08:13:19.015Z,16.30
2018-06-23T08:14:18.967Z,12.90
2018-06-23T08:15:18.928Z,11.70
2018-06-23T08:16:18.897Z,11.90
2018-06-23T08:17:18.858Z,16.90
2018-06-23T08:18:18.823Z,14.20
2018-06-23T08:19:18.785Z,13.70
2018-06-23T08:20:18.756Z,13.70
2018-06-23T08:21:18.727Z,11.40
2018-06-23T08:22:18.686Z,10.30
2018-06-23T08:23:18.644Z,10.90
2018-06-23T08:24:18.606Z,10.50
2018-06-23T08:25:18.573Z,8.80
2018-06-23T08:26:18.567Z,11.00
2018-06-23T08:27:18.509Z,10.40
2018-06-23T08:28:18.466Z,16.10
2018-06-23T08:29:18.428Z,9.00
2018-06-23T08:30:18.393Z,9.10
2018-06-23T08:31:18.362Z,12.70
2018-06-23T08:32:18.332Z,12.40
2018-06-23T08:33:18.293Z,12.20
2018-06-23T08:34:18.267Z,12.00
2018-06-23T08:35:18.219Z,10.30
2018-06-23T08:36:18.182Z,13.40
2018-06-23T08:37:18.156Z,13.50
2018-06-23T08:38:18.118Z,15.80
2018-06-23T08:39:18.078Z,15.30
2018-06-23T08:40:18.043Z,13.60
2018-06-23T08:41:18.009Z,10.30
2018-06-23T08:42:17.970Z,11.20
2018-06-23T08:43:17.940Z,11.00
2018-06-23T08:44:17.900Z,10.00
2018-06-23T08:45:17.865Z,12.50
2018-06-23T08:46:17.844Z,14.60
2018-06-23T08:47:17.794Z,9.70
2018-06-23T08:48:17.757Z,8.40
2018-06-23T08:49:17.721Z,9.40
2018-06-23T08:50:17.688Z,6.10
2018-06-23T08:51:17.652Z,6.40
2018-06-23T08:52:17.621Z,8.50
2018-06-23T08:53:17.584Z,7.30
2018-06-23T08:54:17.551Z,8.00
2018-06-23T08:55:17.511Z,5.80
2018-06-23T08:56:17.478Z,12.00
2018-06-23T08:57:17.440Z,6.80
2018-06-23T08:58:17.413Z,8.20
2018-06-23T08:59:17.377Z,8.70
2018-06-23T09:00:17.332Z,10.30
2018-06-23T09:01:17.295Z,11.90
2018-06-23T09:02:17.279Z,9.50
2018-06-23T09:03:17.235Z,11.30
2018-06-23T09:04:17.192Z,8.40
2018-06-23T09:05:17.218Z,8.60
2018-06-23T09:06:17.121Z,9.40
2018-06-23T09:07:17.087Z,13.70
2018-06-23T09:08:17.049Z,7.40
2018-06-23T09:09:17.022Z,9.20
2018-06-23T09:10:16.981Z,11.00
2018-06-23T09:11:16.938Z,6.60
2018-06-23T09:12:16.926Z,6.60
2018-06-23T09:13:16.877Z,9.70
2018-06-23T09:14:16.836Z,9.80
2018-06-23T09:15:16.801Z,10.30
2018-06-23T09:16:16.767Z,11.20
2018-06-23T09:17:16.735Z,9.80
2018-06-23T09:18:16.705Z,11.00
2018-06-23T09:19:16.675Z,12.30
2018-06-23T09:20:16.625Z,13.00
2018-06-23T09:21:16.588Z,8.30
2018-06-23T09:22:16.569Z,11.50
2018-06-23T09:23:16.512Z,11.90
2018-06-23T09:24:16.487Z,11.80
2018-06-23T09:25:16.485Z,9.80
2018-06-23T09:26:16.414Z,13.20
2018-06-23T09:27:16.381Z,10.40
2018-06-23T09:28:16.344Z,13.90
2018-06-23T09:29:16.304Z,11.40
2018-06-23T09:30:16.272Z,11.70
2018-06-23T09:31:16.239Z,10.70
2018-06-23T09:32:16.197Z,13.20
2018-06-23T09:33:16.164Z,10.80
2018-06-23T09:34:16.134Z,13.80
2018-06-23T09:35:16.099Z,13.90
2018-06-23T09:36:16.066Z,9.40
2018-06-23T09:37:16.025Z,12.00
2018-06-23T09:38:16.001Z,11.00
2018-06-23T09:39:15.953Z,12.40
2018-06-23T09:40:15.912Z,11.60
2018-06-23T09:41:15.885Z,12.80
2018-06-23T09:42:15.847Z,10.10
2018-06-23T09:43:15.812Z,12.00
2018-06-23T09:44:15.796Z,10.30
2018-06-23T09:45:15.750Z,11.30
2018-06-23T09:46:15.786Z,10.10
2018-06-23T09:47:15.673Z,8.60
2018-06-23T09:48:15.639Z,10.10
2018-06-23T09:49:15.639Z,12.00
2018-06-23T09:50:15.571Z,8.70
2018-06-23T09:51:15.558Z,10.30
2018-06-23T09:52:15.500Z,11.50
2018-06-23T09:53:15.461Z,8.20
2018-06-23T09:54:15.440Z,9.60
2018-06-23T09:55:15.392Z,11.40
2018-06-23T09:56:15.361Z,11.70
2018-06-23T09:57:15.322Z,8.80
2018-06-23T09:58:15.337Z,9.20
2018-06-23T09:59:15.257Z,9.90
2018-06-23T10:00:15.215Z,12.60
2018-06-23T10:01:15.185Z,13.10
2018-06-23T10:02:15.146Z,11.50
2018-06-23T10:03:15.160Z,11.50
2018-06-23T10:04:15.074Z,9.00
2018-06-23T10:05:15.044Z,16.20
2018-06-23T10:06:15.007Z,11.60
2018-06-23T10:07:15.015Z,15.60
2018-06-23T10:08:14.939Z,9.80
2018-06-23T10:20:42.065Z,8.60
2018-06-23T10:21:41.988Z,11.20
2018-06-23T10:22:41.953Z,8.90
2018-06-23T10:23:41.919Z,9.10
2018-06-23T10:24:41.875Z,9.60
2018-06-23T10:25:41.829Z,7.10
2018-06-23T10:26:41.795Z,10.10
2018-06-23T10:27:41.754Z,7.60
2018-06-23T10:28:41.721Z,9.50
2018-06-23T10:29:41.687Z,6.00
2018-06-23T10:30:41.656Z,9.90
2018-06-23T10:31:41.609Z,9.20
2018-06-23T10:32:41.577Z,8.30
2018-06-23T10:33:41.541Z,7.00
2018-06-23T10:34:41.509Z,9.20
2018-06-23T10:35:41.476Z,9.10
2018-06-23T10:36:41.433Z,9.10
2018-06-23T10:37:41.400Z,9.20
2018-06-23T10:38:41.365Z,8.00
2018-06-23T10:39:41.355Z,8.40
2018-06-23T10:40:41.311Z,7.80
2018-06-23T10:41:41.258Z,10.70
2018-06-23T10:42:41.225Z,16.30
2018-06-23T10:43:41.197Z,8.60
2018-06-23T10:44:41.157Z,7.30
2018-06-23T10:45:41.117Z,9.60
2018-06-23T10:46:41.089Z,12.00
2018-06-23T10:47:41.051Z,6.80
2018-06-23T10:48:41.025Z,8.20
2018-06-23T10:49:40.978Z,11.00
2018-06-23T10:50:40.948Z,7.50
2018-06-23T10:51:40.908Z,7.00
2018-06-23T10:52:40.869Z,7.20
2018-06-23T10:53:40.866Z,7.20
2018-06-23T10:54:40.820Z,9.70
2018-06-23T10:55:40.774Z,8.20
2018-06-23T10:56:40.738Z,6.10
2018-06-23T10:57:40.695Z,7.60
2018-06-23T10:58:40.665Z,12.70
2018-06-23T10:59:40.629Z,7.50
2018-06-23T11:00:40.596Z,8.70
2018-06-23T11:01:40.568Z,9.50
2018-06-23T11:02:40.566Z,7.50
2018-06-23T11:03:40.488Z,7.50
2018-06-23T11:04:40.485Z,6.20
2018-06-23T11:05:40.425Z,9.70
2018-06-23T11:06:40.392Z,12.80
2018-06-23T11:07:40.355Z,9.20
2018-06-23T11:08:40.320Z,6.80
2018-06-23T11:09:40.285Z,14.80
2018-06-23T11:10:40.249Z,8.00
2018-06-23T11:11:40.215Z,8.50
2018-06-23T11:12:40.190Z,8.00
2018-06-23T11:13:40.149Z,10.30
2018-06-23T11:14:40.116Z,10.40
2018-06-23T11:15:40.082Z,10.60
2018-06-23T11:16:40.049Z,10.10
2018-06-23T11:17:40.010Z,10.10
2018-06-23T11:18:39.998Z,7.20
2018-06-23T11:19:39.951Z,10.30
2018-06-23T11:20:39.912Z,10.30
2018-06-23T11:21:39.871Z,8.40
2018-06-23T11:22:39.838Z,7.60
2018-06-23T11:23:39.800Z,9.20
2018-06-23T11:24:39.874Z,8.80
2018-06-23T11:25:39.735Z,8.00
2018-06-23T11:26:39.709Z,8.30
2018-06-23T11:27:39.670Z,10.50
2018-06-23T11:28:39.634Z,8.90
2018-06-23T11:29:39.604Z,9.80
2018-06-23T11:30:39.558Z,7.80
2018-06-23T11:31:39.524Z,10.10
2018-06-23T11:32:39.524Z,10.30
2018-06-23T11:33:39.541Z,8.50
2018-06-23T11:34:39.468Z,8.80
2018-06-23T11:35:39.426Z,10.70
2018-06-23T11:36:39.416Z,5.80
2018-06-23T11:37:39.366Z,9.20
2018-06-23T11:38:39.295Z,6.30
2018-06-23T11:39:39.272Z,8.10
2018-06-23T11:40:39.246Z,9.00
2018-06-23T11:41:39.225Z,9.60
2018-06-23T11:42:39.191Z,9.40
2018-06-23T11:43:39.158Z,8.10
2018-06-23T11:44:39.152Z,6.10
2018-06-23T11:45:39.087Z,8.80
2018-06-23T11:46:39.085Z,9.50
2018-06-23T11:47:48.175Z,9.20
2018-06-23T11:49:40.238Z,9.60
2018-06-23T11:50:32.495Z,9.40
2018-06-23T11:51:33.966Z,9.20
2018-06-23T11:52:32.320Z,14.60
2018-06-23T11:53:41.625Z,12.50
2018-06-23T11:54:32.548Z,8.10
2018-06-23T11:55:32.623Z,10.30
2018-06-23T11:56:41.329Z,8.70
2018-06-23T11:58:34.132Z,8.20
2018-06-23T11:59:25.416Z,8.60
2018-06-23T12:00:25.353Z,5.80
2018-06-23T12:01:25.817Z,8.60
2018-06-23T12:02:25.750Z,9.20
2018-06-23T12:03:25.629Z,10.80
2018-06-23T12:04:34.499Z,6.00
2018-06-23T12:06:19.684Z,9.30
2018-06-23T12:07:18.587Z,10.30
2018-06-23T12:08:18.556Z,7.10
2018-06-23T12:09:18.426Z,7.70
2018-06-23T12:10:19.113Z,6.90
2018-06-23T12:11:26.470Z,8.40
2018-06-23T12:12:18.558Z,8.20
2018-06-23T12:13:18.305Z,8.10
2018-06-23T16:05:07.205Z,2.70
2018-06-23T16:05:57.610Z,6.70
2018-06-23T16:06:56.624Z,8.10
2018-06-23T16:07:56.559Z,7.10
2018-06-23T16:08:56.678Z,8.20
2018-06-23T16:09:56.495Z,7.60
2018-06-23T16:10:56.444Z,5.10
2018-06-23T16:11:56.417Z,6.60
2018-06-23T16:12:56.375Z,9.70
2018-06-23T16:13:56.360Z,4.70
2018-06-23T16:14:56.351Z,6.70
2018-06-23T16:15:56.266Z,4.80
2018-06-23T16:16:56.241Z,5.90
2018-06-23T16:17:56.198Z,7.20
2018-06-23T16:18:56.185Z,7.30
2018-06-23T16:19:56.148Z,7.10
2018-06-23T16:20:56.096Z,6.50
2018-06-23T16:21:56.057Z,6.70
2018-06-23T16:22:56.021Z,5.30
2018-06-23T16:23:55.998Z,8.40
2018-06-23T16:24:55.955Z,7.10
2018-06-23T16:25:55.929Z,5.00
2018-06-23T16:26:55.890Z,7.40
2018-06-23T16:27:55.861Z,8.70
2018-06-23T16:28:55.819Z,7.20
2018-06-23T16:29:55.785Z,5.10
2018-06-23T16:30:55.747Z,5.40
2018-06-23T16:31:55.740Z,5.50
2018-06-23T16:32:55.692Z,5.00
2018-06-23T16:33:55.680Z,6.00
2018-06-23T16:34:55.744Z,5.40
2018-06-23T16:35:55.580Z,6.20
2018-06-23T16:36:55.556Z,5.80
2018-06-23T16:37:55.517Z,6.40
2018-06-23T16:38:55.486Z,7.00
2018-06-23T16:39:55.448Z,5.70
2018-06-23T16:40:55.411Z,7.90
2018-06-23T16:41:55.407Z,7.60
2018-06-23T16:42:55.343Z,5.40
2018-06-23T16:43:55.317Z,5.30
2018-06-23T16:44:55.301Z,6.80
2018-06-23T16:45:55.279Z,4.70
2018-06-23T16:46:55.223Z,5.40
2018-06-23T16:47:55.190Z,5.00
2018-06-23T16:48:55.146Z,11.10
2018-06-23T16:49:55.128Z,6.30
2018-06-23T16:50:55.076Z,7.30
2018-06-23T16:51:55.055Z,8.60
2018-06-23T16:52:55.018Z,5.90
2018-06-23T16:53:54.978Z,7.40
2018-06-23T16:54:54.962Z,6.30
2018-06-23T16:55:54.918Z,6.90
2018-06-23T16:56:54.903Z,6.10
2018-06-23T16:57:54.846Z,9.40
2018-06-23T16:58:54.816Z,5.30
2018-06-23T16:59:54.795Z,6.10
2018-06-23T17:00:54.747Z,7.50
2018-06-23T17:01:54.719Z,4.90
2018-06-23T17:02:54.673Z,7.20
2018-06-23T17:03:54.769Z,7.80
2018-06-23T17:04:54.613Z,8.30
2018-06-23T17:05:54.588Z,6.60
2018-06-23T17:06:54.552Z,8.40
2018-06-23T17:07:54.513Z,9.20
2018-06-23T17:08:54.489Z,7.90
2018-06-23T17:09:54.446Z,9.60
2018-06-23T17:10:54.413Z,7.90
2018-06-23T17:11:54.383Z,10.10
2018-06-23T17:12:54.348Z,7.60
2018-06-23T17:13:54.313Z,6.00
2018-06-23T17:14:54.277Z,7.30
2018-06-23T17:15:54.247Z,9.50
2018-06-23T17:16:54.223Z,6.60
2018-06-23T17:17:54.182Z,9.70